sensor_id;sensor_type;location;lat;lon;timestamp;P1;durP1;ratioP1;P2;durP2;ratioP2
59006;SDS011;44792;52.760;6.726;2024-03-06T00:02:22;17.42;;;8.70;;
59006;SDS011;44792;52.760;6.726;2024-03-06T00:04:48;19.25;;;8.50;;
59006;SDS011;44792;52.760;6.726;2024-03-06T00:07:14;16.60;;;8.68;;
59006;SDS011;44792;52.760;6.726;2024-03-06T00:09:39;15.68;;;8.43;;
59006;SDS011;44792;52.760;6.726;2024-03-06T00:12:05;16.55;;;9.13;;
59006;SDS011;44792;52.760;6.726;2024-03-06T00:14:31;18.58;;;9.38;;
59006;SDS011;44792;52.760;6.726;2024-03-06T00:16:57;18.90;;;8.70;;
59006;SDS011;44792;52.760;6.726;2024-03-06T00:19:23;13.32;;;7.93;;
59006;SDS011;44792;52.760;6.726;2024-03-06T00:21:48;17.83;;;8.40;;
59006;SDS011;44792;52.760;6.726;2024-03-06T00:24:15;15.68;;;8.90;;
59006;SDS011;44792;52.760;6.726;2024-03-06T00:26:41;19.73;;;8.77;;
59006;SDS011;44792;52.760;6.726;2024-03-06T00:29:08;13.90;;;8.68;;
59006;SDS011;44792;52.760;6.726;2024-03-06T00:31:34;20.95;;;9.88;;
59006;SDS011;44792;52.760;6.726;2024-03-06T00:33:59;17.30;;;9.15;;
59006;SDS011;44792;52.760;6.726;2024-03-06T00:36:25;14.65;;;8.07;;
59006;SDS011;44792;52.760;6.726;2024-03-06T00:38:51;12.20;;;8.60;;
59006;SDS011;44792;52.760;6.726;2024-03-06T00:41:16;17.65;;;9.27;;
59006;SDS011;44792;52.760;6.726;2024-03-06T00:43:42;18.50;;;8.68;;
59006;SDS011;44792;52.760;6.726;2024-03-06T00:46:08;16.75;;;9.40;;
59006;SDS011;44792;52.760;6.726;2024-03-06T00:48:34;13.90;;;8.63;;
59006;SDS011;44792;52.760;6.726;2024-03-06T00:51:00;15.10;;;8.95;;
59006;SDS011;44792;52.760;6.726;2024-03-06T00:53:25;14.05;;;7.88;;
59006;SDS011;44792;52.760;6.726;2024-03-06T00:55:51;18.90;;;9.88;;
59006;SDS011;44792;52.760;6.726;2024-03-06T00:58:17;12.57;;;7.80;;
59006;SDS011;44792;52.760;6.726;2024-03-06T01:00:42;14.65;;;9.38;;
59006;SDS011;44792;52.760;6.726;2024-03-06T01:03:08;17.80;;;9.52;;
59006;SDS011;44792;52.760;6.726;2024-03-06T01:05:34;13.50;;;8.43;;
59006;SDS011;44792;52.760;6.726;2024-03-06T01:07:59;17.25;;;8.73;;
59006;SDS011;44792;52.760;6.726;2024-03-06T01:10:25;16.25;;;8.45;;
59006;SDS011;44792;52.760;6.726;2024-03-06T01:12:51;17.50;;;8.60;;
59006;SDS011;44792;52.760;6.726;2024-03-06T01:15:16;17.83;;;8.70;;
59006;SDS011;44792;52.760;6.726;2024-03-06T01:17:42;18.92;;;7.97;;
59006;SDS011;44792;52.760;6.726;2024-03-06T01:20:08;18.67;;;8.50;;
59006;SDS011;44792;52.760;6.726;2024-03-06T01:22:34;14.95;;;8.25;;
59006;SDS011;44792;52.760;6.726;2024-03-06T01:25:00;18.98;;;8.82;;
59006;SDS011;44792;52.760;6.726;2024-03-06T01:27:26;13.63;;;7.55;;
59006;SDS011;44792;52.760;6.726;2024-03-06T01:29:52;15.88;;;8.63;;
59006;SDS011;44792;52.760;6.726;2024-03-06T01:32:18;15.82;;;8.60;;
59006;SDS011;44792;52.760;6.726;2024-03-06T01:34:44;19.00;;;8.52;;
59006;SDS011;44792;52.760;6.726;2024-03-06T01:37:10;19.85;;;8.60;;
59006;SDS011;44792;52.760;6.726;2024-03-06T01:39:35;15.52;;;8.80;;
59006;SDS011;44792;52.760;6.726;2024-03-06T01:42:01;12.88;;;7.95;;
59006;SDS011;44792;52.760;6.726;2024-03-06T01:44:28;19.27;;;8.80;;
59006;SDS011;44792;52.760;6.726;2024-03-06T01:46:54;17.15;;;9.05;;
59006;SDS011;44792;52.760;6.726;2024-03-06T01:49:20;19.05;;;10.32;;
59006;SDS011;44792;52.760;6.726;2024-03-06T01:51:48;14.38;;;8.32;;
59006;SDS011;44792;52.760;6.726;2024-03-06T01:54:16;12.90;;;7.93;;
59006;SDS011;44792;52.760;6.726;2024-03-06T01:56:44;15.52;;;9.23;;
59006;SDS011;44792;52.760;6.726;2024-03-06T01:59:11;14.15;;;9.05;;
59006;SDS011;44792;52.760;6.726;2024-03-06T02:01:45;18.45;;;8.25;;
59006;SDS011;44792;52.760;6.726;2024-03-06T02:04:12;20.05;;;8.50;;
59006;SDS011;44792;52.760;6.726;2024-03-06T02:06:38;17.30;;;8.43;;
59006;SDS011;44792;52.760;6.726;2024-03-06T02:09:05;15.27;;;8.05;;
59006;SDS011;44792;52.760;6.726;2024-03-06T02:11:32;14.88;;;8.57;;
59006;SDS011;44792;52.760;6.726;2024-03-06T02:13:58;17.05;;;8.68;;
59006;SDS011;44792;52.760;6.726;2024-03-06T02:16:24;16.33;;;8.07;;
59006;SDS011;44792;52.760;6.726;2024-03-06T02:18:53;13.63;;;8.65;;
59006;SDS011;44792;52.760;6.726;2024-03-06T02:21:20;18.17;;;8.43;;
59006;SDS011;44792;52.760;6.726;2024-03-06T02:23:47;15.65;;;8.27;;
59006;SDS011;44792;52.760;6.726;2024-03-06T02:26:13;15.48;;;8.02;;
59006;SDS011;44792;52.760;6.726;2024-03-06T02:28:39;12.70;;;8.15;;
59006;SDS011;44792;52.760;6.726;2024-03-06T02:31:11;16.80;;;9.13;;
59006;SDS011;44792;52.760;6.726;2024-03-06T02:33:36;18.52;;;8.65;;
59006;SDS011;44792;52.760;6.726;2024-03-06T02:36:02;15.88;;;8.30;;
59006;SDS011;44792;52.760;6.726;2024-03-06T02:38:28;14.68;;;9.00;;
59006;SDS011;44792;52.760;6.726;2024-03-06T02:40:54;16.45;;;8.35;;
59006;SDS011;44792;52.760;6.726;2024-03-06T02:43:19;18.13;;;8.43;;
59006;SDS011;44792;52.760;6.726;2024-03-06T02:45:45;14.98;;;8.75;;
59006;SDS011;44792;52.760;6.726;2024-03-06T02:48:11;16.15;;;9.15;;
59006;SDS011;44792;52.760;6.726;2024-03-06T02:50:36;17.40;;;8.38;;
59006;SDS011;44792;52.760;6.726;2024-03-06T02:53:02;12.18;;;8.10;;
59006;SDS011;44792;52.760;6.726;2024-03-06T02:55:28;16.35;;;8.55;;
59006;SDS011;44792;52.760;6.726;2024-03-06T02:57:53;13.32;;;8.18;;
59006;SDS011;44792;52.760;6.726;2024-03-06T03:00:19;16.17;;;8.65;;
59006;SDS011;44792;52.760;6.726;2024-03-06T03:02:45;15.68;;;8.93;;
59006;SDS011;44792;52.760;6.726;2024-03-06T03:05:11;12.77;;;8.02;;
59006;SDS011;44792;52.760;6.726;2024-03-06T03:07:36;17.52;;;8.95;;
59006;SDS011;44792;52.760;6.726;2024-03-06T03:10:02;15.07;;;8.57;;
59006;SDS011;44792;52.760;6.726;2024-03-06T03:12:29;18.33;;;9.00;;
59006;SDS011;44792;52.760;6.726;2024-03-06T03:14:55;13.88;;;8.90;;
59006;SDS011;44792;52.760;6.726;2024-03-06T03:17:21;15.52;;;8.93;;
59006;SDS011;44792;52.760;6.726;2024-03-06T03:19:46;17.75;;;9.50;;
59006;SDS011;44792;52.760;6.726;2024-03-06T03:22:12;13.38;;;9.18;;
59006;SDS011;44792;52.760;6.726;2024-03-06T03:24:38;15.68;;;8.95;;
59006;SDS011;44792;52.760;6.726;2024-03-06T03:27:06;15.02;;;8.90;;
59006;SDS011;44792;52.760;6.726;2024-03-06T03:29:32;14.85;;;8.40;;
59006;SDS011;44792;52.760;6.726;2024-03-06T03:31:58;16.58;;;9.00;;
59006;SDS011;44792;52.760;6.726;2024-03-06T03:34:24;16.73;;;8.73;;
59006;SDS011;44792;52.760;6.726;2024-03-06T03:36:49;17.55;;;9.18;;
59006;SDS011;44792;52.760;6.726;2024-03-06T03:39:15;16.25;;;8.95;;
59006;SDS011;44792;52.760;6.726;2024-03-06T03:41:43;15.65;;;9.32;;
59006;SDS011;44792;52.760;6.726;2024-03-06T03:44:11;17.42;;;9.52;;
59006;SDS011;44792;52.760;6.726;2024-03-06T03:46:40;14.88;;;9.10;;
59006;SDS011;44792;52.760;6.726;2024-03-06T03:49:06;18.20;;;10.00;;
59006;SDS011;44792;52.760;6.726;2024-03-06T03:51:32;15.63;;;8.52;;
59006;SDS011;44792;52.760;6.726;2024-03-06T03:53:57;14.80;;;9.10;;
59006;SDS011;44792;52.760;6.726;2024-03-06T03:56:23;14.52;;;8.35;;
59006;SDS011;44792;52.760;6.726;2024-03-06T03:58:49;17.88;;;9.15;;
59006;SDS011;44792;52.760;6.726;2024-03-06T04:01:14;21.70;;;8.98;;
59006;SDS011;44792;52.760;6.726;2024-03-06T04:03:40;17.70;;;9.45;;
59006;SDS011;44792;52.760;6.726;2024-03-06T04:06:07;14.35;;;9.32;;
59006;SDS011;44792;52.760;6.726;2024-03-06T04:08:36;18.30;;;10.05;;
59006;SDS011;44792;52.760;6.726;2024-03-06T04:11:05;17.92;;;10.40;;
59006;SDS011;44792;52.760;6.726;2024-03-06T04:13:34;19.98;;;9.80;;
59006;SDS011;44792;52.760;6.726;2024-03-06T04:16:02;16.98;;;9.48;;
59006;SDS011;44792;52.760;6.726;2024-03-06T04:18:29;21.02;;;10.15;;
59006;SDS011;44792;52.760;6.726;2024-03-06T04:21:04;22.35;;;10.32;;
59006;SDS011;44792;52.760;6.726;2024-03-06T04:23:31;16.58;;;9.20;;
59006;SDS011;44792;52.760;6.726;2024-03-06T04:25:57;20.00;;;9.43;;
59006;SDS011;44792;52.760;6.726;2024-03-06T04:28:22;16.77;;;9.35;;
59006;SDS011;44792;52.760;6.726;2024-03-06T04:30:48;16.63;;;9.40;;
59006;SDS011;44792;52.760;6.726;2024-03-06T04:33:14;16.73;;;10.13;;
59006;SDS011;44792;52.760;6.726;2024-03-06T04:35:40;20.90;;;10.38;;
59006;SDS011;44792;52.760;6.726;2024-03-06T04:38:06;19.58;;;10.30;;
59006;SDS011;44792;52.760;6.726;2024-03-06T04:40:32;16.80;;;9.25;;
59006;SDS011;44792;52.760;6.726;2024-03-06T04:42:59;15.88;;;10.02;;
59006;SDS011;44792;52.760;6.726;2024-03-06T04:45:28;17.55;;;9.98;;
59006;SDS011;44792;52.760;6.726;2024-03-06T04:47:54;21.02;;;10.57;;
59006;SDS011;44792;52.760;6.726;2024-03-06T04:50:20;19.65;;;10.88;;
59006;SDS011;44792;52.760;6.726;2024-03-06T04:52:46;20.08;;;10.02;;
59006;SDS011;44792;52.760;6.726;2024-03-06T04:55:11;21.13;;;10.70;;
59006;SDS011;44792;52.760;6.726;2024-03-06T04:57:39;15.93;;;9.95;;
59006;SDS011;44792;52.760;6.726;2024-03-06T05:00:07;24.13;;;10.85;;
59006;SDS011;44792;52.760;6.726;2024-03-06T05:02:34;19.92;;;10.32;;
59006;SDS011;44792;52.760;6.726;2024-03-06T05:05:01;21.98;;;10.77;;
59006;SDS011;44792;52.760;6.726;2024-03-06T05:07:28;15.60;;;9.55;;
59006;SDS011;44792;52.760;6.726;2024-03-06T05:09:54;23.73;;;10.27;;
59006;SDS011;44792;52.760;6.726;2024-03-06T05:12:21;17.48;;;11.60;;
59006;SDS011;44792;52.760;6.726;2024-03-06T05:14:46;22.75;;;10.90;;
59006;SDS011;44792;52.760;6.726;2024-03-06T05:17:12;17.45;;;10.98;;
59006;SDS011;44792;52.760;6.726;2024-03-06T05:19:38;21.30;;;10.88;;
59006;SDS011;44792;52.760;6.726;2024-03-06T05:22:03;18.60;;;10.93;;
59006;SDS011;44792;52.760;6.726;2024-03-06T05:24:30;20.65;;;11.27;;
59006;SDS011;44792;52.760;6.726;2024-03-06T05:26:56;24.20;;;11.57;;
59006;SDS011;44792;52.760;6.726;2024-03-06T05:29:22;21.55;;;11.10;;
59006;SDS011;44792;52.760;6.726;2024-03-06T05:31:47;21.20;;;11.43;;
59006;SDS011;44792;52.760;6.726;2024-03-06T05:34:13;20.55;;;12.15;;
59006;SDS011;44792;52.760;6.726;2024-03-06T05:36:42;22.02;;;12.65;;
59006;SDS011;44792;52.760;6.726;2024-03-06T05:39:08;19.33;;;11.18;;
59006;SDS011;44792;52.760;6.726;2024-03-06T05:41:38;22.15;;;11.75;;
59006;SDS011;44792;52.760;6.726;2024-03-06T05:44:07;21.08;;;12.60;;
59006;SDS011;44792;52.760;6.726;2024-03-06T05:46:33;24.83;;;11.80;;
59006;SDS011;44792;52.760;6.726;2024-03-06T05:48:59;31.00;;;13.20;;
59006;SDS011;44792;52.760;6.726;2024-03-06T05:51:26;25.08;;;12.15;;
59006;SDS011;44792;52.760;6.726;2024-03-06T05:53:52;27.40;;;11.00;;
59006;SDS011;44792;52.760;6.726;2024-03-06T05:56:18;23.65;;;12.88;;
59006;SDS011;44792;52.760;6.726;2024-03-06T05:58:44;22.23;;;13.05;;
59006;SDS011;44792;52.760;6.726;2024-03-06T06:01:14;24.92;;;13.20;;
59006;SDS011;44792;52.760;6.726;2024-03-06T06:03:41;23.42;;;12.70;;
59006;SDS011;44792;52.760;6.726;2024-03-06T06:06:07;25.70;;;13.05;;
59006;SDS011;44792;52.760;6.726;2024-03-06T06:08:35;25.02;;;12.38;;
59006;SDS011;44792;52.760;6.726;2024-03-06T06:11:04;23.08;;;12.68;;
59006;SDS011;44792;52.760;6.726;2024-03-06T06:13:30;26.92;;;13.30;;
59006;SDS011;44792;52.760;6.726;2024-03-06T06:15:57;21.98;;;11.70;;
59006;SDS011;44792;52.760;6.726;2024-03-06T06:18:23;20.88;;;12.30;;
59006;SDS011;44792;52.760;6.726;2024-03-06T06:20:49;26.17;;;13.68;;
59006;SDS011;44792;52.760;6.726;2024-03-06T06:23:15;22.85;;;13.05;;
59006;SDS011;44792;52.760;6.726;2024-03-06T06:25:40;26.15;;;13.10;;
59006;SDS011;44792;52.760;6.726;2024-03-06T06:28:06;18.95;;;11.90;;
59006;SDS011;44792;52.760;6.726;2024-03-06T06:30:32;23.98;;;12.50;;
59006;SDS011;44792;52.760;6.726;2024-03-06T06:32:57;19.88;;;12.48;;
59006;SDS011;44792;52.760;6.726;2024-03-06T06:35:23;26.42;;;12.27;;
59006;SDS011;44792;52.760;6.726;2024-03-06T06:37:50;25.35;;;12.70;;
59006;SDS011;44792;52.760;6.726;2024-03-06T06:40:16;19.60;;;11.52;;
59006;SDS011;44792;52.760;6.726;2024-03-06T06:42:44;22.08;;;11.95;;
59006;SDS011;44792;52.760;6.726;2024-03-06T06:45:14;22.48;;;12.18;;
59006;SDS011;44792;52.760;6.726;2024-03-06T06:47:44;20.90;;;11.32;;
59006;SDS011;44792;52.760;6.726;2024-03-06T06:50:10;24.85;;;11.85;;
59006;SDS011;44792;52.760;6.726;2024-03-06T06:52:39;21.00;;;10.90;;
59006;SDS011;44792;52.760;6.726;2024-03-06T06:55:05;24.08;;;12.30;;
59006;SDS011;44792;52.760;6.726;2024-03-06T06:57:32;19.92;;;11.95;;
59006;SDS011;44792;52.760;6.726;2024-03-06T06:59:58;16.52;;;10.77;;
59006;SDS011;44792;52.760;6.726;2024-03-06T07:02:25;17.98;;;10.63;;
59006;SDS011;44792;52.760;6.726;2024-03-06T07:04:51;21.52;;;11.15;;
59006;SDS011;44792;52.760;6.726;2024-03-06T07:07:17;21.80;;;11.52;;
59006;SDS011;44792;52.760;6.726;2024-03-06T07:09:43;17.75;;;11.40;;
59006;SDS011;44792;52.760;6.726;2024-03-06T07:12:12;21.58;;;11.77;;
59006;SDS011;44792;52.760;6.726;2024-03-06T07:14:37;21.33;;;12.88;;
59006;SDS011;44792;52.760;6.726;2024-03-06T07:17:03;17.55;;;11.07;;
59006;SDS011;44792;52.760;6.726;2024-03-06T07:19:29;17.42;;;11.20;;
59006;SDS011;44792;52.760;6.726;2024-03-06T07:21:54;21.88;;;11.27;;
59006;SDS011;44792;52.760;6.726;2024-03-06T07:24:20;24.52;;;11.95;;
59006;SDS011;44792;52.760;6.726;2024-03-06T07:26:46;19.83;;;12.30;;
59006;SDS011;44792;52.760;6.726;2024-03-06T07:29:14;21.10;;;11.95;;
59006;SDS011;44792;52.760;6.726;2024-03-06T07:31:41;19.35;;;11.05;;
59006;SDS011;44792;52.760;6.726;2024-03-06T07:34:10;22.67;;;13.38;;
59006;SDS011;44792;52.760;6.726;2024-03-06T07:36:36;20.10;;;11.73;;
59006;SDS011;44792;52.760;6.726;2024-03-06T07:39:02;28.52;;;12.25;;
59006;SDS011;44792;52.760;6.726;2024-03-06T07:41:28;19.48;;;11.15;;
59006;SDS011;44792;52.760;6.726;2024-03-06T07:43:54;19.90;;;11.63;;
59006;SDS011;44792;52.760;6.726;2024-03-06T07:46:19;22.40;;;12.57;;
59006;SDS011;44792;52.760;6.726;2024-03-06T07:48:45;24.85;;;12.70;;
59006;SDS011;44792;52.760;6.726;2024-03-06T07:51:11;27.98;;;12.43;;
59006;SDS011;44792;52.760;6.726;2024-03-06T07:53:37;23.52;;;12.88;;
59006;SDS011;44792;52.760;6.726;2024-03-06T07:56:02;20.15;;;12.57;;
59006;SDS011;44792;52.760;6.726;2024-03-06T07:58:28;22.48;;;12.95;;
59006;SDS011;44792;52.760;6.726;2024-03-06T08:00:54;23.30;;;11.85;;
59006;SDS011;44792;52.760;6.726;2024-03-06T08:03:21;20.55;;;12.90;;
59006;SDS011;44792;52.760;6.726;2024-03-06T08:05:51;22.45;;;12.65;;
59006;SDS011;44792;52.760;6.726;2024-03-06T08:08:20;22.20;;;14.05;;
59006;SDS011;44792;52.760;6.726;2024-03-06T08:10:46;28.20;;;14.30;;
59006;SDS011;44792;52.760;6.726;2024-03-06T08:13:12;26.30;;;13.68;;
59006;SDS011;44792;52.760;6.726;2024-03-06T08:15:39;24.33;;;13.02;;
59006;SDS011;44792;52.760;6.726;2024-03-06T08:18:05;30.73;;;14.77;;
59006;SDS011;44792;52.760;6.726;2024-03-06T08:20:31;29.25;;;14.02;;
59006;SDS011;44792;52.760;6.726;2024-03-06T08:22:58;23.65;;;14.20;;
59006;SDS011;44792;52.760;6.726;2024-03-06T08:25:26;25.65;;;14.18;;
59006;SDS011;44792;52.760;6.726;2024-03-06T08:27:52;25.85;;;13.80;;
59006;SDS011;44792;52.760;6.726;2024-03-06T08:30:17;30.58;;;14.93;;
59006;SDS011;44792;52.760;6.726;2024-03-06T08:32:44;22.67;;;13.68;;
59006;SDS011;44792;52.760;6.726;2024-03-06T08:35:12;24.73;;;12.88;;
59006;SDS011;44792;52.760;6.726;2024-03-06T08:37:38;25.30;;;14.00;;
59006;SDS011;44792;52.760;6.726;2024-03-06T08:40:05;33.42;;;15.00;;
59006;SDS011;44792;52.760;6.726;2024-03-06T08:42:40;28.95;;;14.60;;
59006;SDS011;44792;52.760;6.726;2024-03-06T08:45:06;25.30;;;13.70;;
59006;SDS011;44792;52.760;6.726;2024-03-06T08:47:33;23.92;;;12.93;;
59006;SDS011;44792;52.760;6.726;2024-03-06T08:49:59;25.95;;;14.25;;
59006;SDS011;44792;52.760;6.726;2024-03-06T08:52:25;24.98;;;13.93;;
59006;SDS011;44792;52.760;6.726;2024-03-06T08:54:50;26.88;;;13.35;;
59006;SDS011;44792;52.760;6.726;2024-03-06T08:57:16;32.47;;;16.08;;
59006;SDS011;44792;52.760;6.726;2024-03-06T08:59:42;26.25;;;14.30;;
59006;SDS011;44792;52.760;6.726;2024-03-06T09:02:15;29.00;;;13.95;;
59006;SDS011;44792;52.760;6.726;2024-03-06T09:04:43;29.67;;;14.30;;
59006;SDS011;44792;52.760;6.726;2024-03-06T09:07:09;29.15;;;17.05;;
59006;SDS011;44792;52.760;6.726;2024-03-06T09:09:36;29.80;;;16.00;;
59006;SDS011;44792;52.760;6.726;2024-03-06T09:14:31;35.55;;;16.48;;
59006;SDS011;44792;52.760;6.726;2024-03-06T09:16:57;33.03;;;17.20;;
59006;SDS011;44792;52.760;6.726;2024-03-06T09:19:23;26.65;;;16.38;;
59006;SDS011;44792;52.760;6.726;2024-03-06T09:21:51;34.17;;;18.65;;
59006;SDS011;44792;52.760;6.726;2024-03-06T09:24:18;35.03;;;18.20;;
59006;SDS011;44792;52.760;6.726;2024-03-06T09:26:45;35.38;;;18.85;;
59006;SDS011;44792;52.760;6.726;2024-03-06T09:29:12;35.72;;;18.63;;
59006;SDS011;44792;52.760;6.726;2024-03-06T09:31:38;39.60;;;19.55;;
59006;SDS011;44792;52.760;6.726;2024-03-06T09:34:04;30.75;;;18.33;;
59006;SDS011;44792;52.760;6.726;2024-03-06T09:36:29;31.95;;;17.88;;
59006;SDS011;44792;52.760;6.726;2024-03-06T09:38:58;39.50;;;20.15;;
59006;SDS011;44792;52.760;6.726;2024-03-06T09:41:24;35.25;;;18.65;;
59006;SDS011;44792;52.760;6.726;2024-03-06T09:43:50;38.63;;;19.10;;
59006;SDS011;44792;52.760;6.726;2024-03-06T09:46:15;33.17;;;19.35;;
59006;SDS011;44792;52.760;6.726;2024-03-06T09:48:46;38.47;;;19.60;;
59006;SDS011;44792;52.760;6.726;2024-03-06T09:51:14;33.28;;;19.05;;
59006;SDS011;44792;52.760;6.726;2024-03-06T09:53:40;38.58;;;19.45;;
59006;SDS011;44792;52.760;6.726;2024-03-06T09:56:08;34.53;;;18.73;;
59006;SDS011;44792;52.760;6.726;2024-03-06T09:58:37;35.60;;;18.55;;
59006;SDS011;44792;52.760;6.726;2024-03-06T10:01:03;32.28;;;18.23;;
59006;SDS011;44792;52.760;6.726;2024-03-06T10:03:32;33.47;;;18.15;;
59006;SDS011;44792;52.760;6.726;2024-03-06T10:05:59;36.03;;;18.85;;
59006;SDS011;44792;52.760;6.726;2024-03-06T10:08:25;37.45;;;18.10;;
59006;SDS011;44792;52.760;6.726;2024-03-06T10:10:51;37.65;;;19.23;;
59006;SDS011;44792;52.760;6.726;2024-03-06T10:13:17;35.92;;;18.30;;
59006;SDS011;44792;52.760;6.726;2024-03-06T10:15:59;31.33;;;17.67;;
59006;SDS011;44792;52.760;6.726;2024-03-06T10:18:29;38.80;;;19.48;;
59006;SDS011;44792;52.760;6.726;2024-03-06T10:20:56;34.25;;;18.15;;
59006;SDS011;44792;52.760;6.726;2024-03-06T10:23:23;32.05;;;17.27;;
59006;SDS011;44792;52.760;6.726;2024-03-06T10:25:55;39.58;;;17.42;;
59006;SDS011;44792;52.760;6.726;2024-03-06T10:28:21;37.25;;;19.80;;
59006;SDS011;44792;52.760;6.726;2024-03-06T10:30:48;33.70;;;18.05;;
59006;SDS011;44792;52.760;6.726;2024-03-06T10:33:16;32.30;;;17.15;;
59006;SDS011;44792;52.760;6.726;2024-03-06T10:35:47;32.50;;;18.27;;
59006;SDS011;44792;52.760;6.726;2024-03-06T10:38:13;36.55;;;18.27;;
59006;SDS011;44792;52.760;6.726;2024-03-06T10:40:44;38.20;;;17.55;;
59006;SDS011;44792;52.760;6.726;2024-03-06T10:43:10;38.33;;;18.85;;
59006;SDS011;44792;52.760;6.726;2024-03-06T10:48:11;32.30;;;16.90;;
59006;SDS011;44792;52.760;6.726;2024-03-06T10:50:39;37.45;;;18.17;;
59006;SDS011;44792;52.760;6.726;2024-03-06T10:53:09;41.95;;;18.50;;
59006;SDS011;44792;52.760;6.726;2024-03-06T10:55:39;35.67;;;17.88;;
59006;SDS011;44792;52.760;6.726;2024-03-06T10:58:08;34.75;;;18.55;;
59006;SDS011;44792;52.760;6.726;2024-03-06T11:00:35;30.15;;;17.60;;
59006;SDS011;44792;52.760;6.726;2024-03-06T11:03:06;32.15;;;16.98;;
59006;SDS011;44792;52.760;6.726;2024-03-06T11:05:37;35.83;;;18.13;;
59006;SDS011;44792;52.760;6.726;2024-03-06T11:08:14;38.70;;;19.73;;
59006;SDS011;44792;52.760;6.726;2024-03-06T11:10:42;37.90;;;17.55;;
59006;SDS011;44792;52.760;6.726;2024-03-06T11:13:30;32.17;;;17.33;;
59006;SDS011;44792;52.760;6.726;2024-03-06T11:15:58;36.15;;;18.35;;
59006;SDS011;44792;52.760;6.726;2024-03-06T11:26:47;30.00;;;17.48;;
59006;SDS011;44792;52.760;6.726;2024-03-06T11:29:22;40.08;;;18.67;;
59006;SDS011;44792;52.760;6.726;2024-03-06T11:31:57;35.90;;;18.88;;
59006;SDS011;44792;52.760;6.726;2024-03-06T11:34:35;34.90;;;18.08;;
59006;SDS011;44792;52.760;6.726;2024-03-06T11:37:06;31.05;;;18.95;;
59006;SDS011;44792;52.760;6.726;2024-03-06T11:39:34;36.65;;;18.27;;
59006;SDS011;44792;52.760;6.726;2024-03-06T11:42:02;37.63;;;19.40;;
59006;SDS011;44792;52.760;6.726;2024-03-06T11:44:29;40.17;;;18.48;;
59006;SDS011;44792;52.760;6.726;2024-03-06T11:49:27;38.88;;;19.83;;
59006;SDS011;44792;52.760;6.726;2024-03-06T11:51:54;34.47;;;19.77;;
59006;SDS011;44792;52.760;6.726;2024-03-06T11:54:22;39.00;;;18.88;;
59006;SDS011;44792;52.760;6.726;2024-03-06T11:56:51;40.13;;;18.85;;
59006;SDS011;44792;52.760;6.726;2024-03-06T11:59:24;36.38;;;20.23;;
59006;SDS011;44792;52.760;6.726;2024-03-06T12:02:01;39.00;;;20.88;;
59006;SDS011;44792;52.760;6.726;2024-03-06T12:04:32;41.25;;;20.90;;
59006;SDS011;44792;52.760;6.726;2024-03-06T12:07:01;38.65;;;20.23;;
59006;SDS011;44792;52.760;6.726;2024-03-06T12:09:37;40.47;;;20.08;;
59006;SDS011;44792;52.760;6.726;2024-03-06T12:12:04;37.15;;;19.95;;
59006;SDS011;44792;52.760;6.726;2024-03-06T12:14:34;40.90;;;19.98;;
59006;SDS011;44792;52.760;6.726;2024-03-06T12:17:01;40.80;;;21.33;;
59006;SDS011;44792;52.760;6.726;2024-03-06T12:19:34;41.50;;;20.30;;
59006;SDS011;44792;52.760;6.726;2024-03-06T12:22:03;35.53;;;19.02;;
59006;SDS011;44792;52.760;6.726;2024-03-06T12:24:33;44.00;;;22.60;;
59006;SDS011;44792;52.760;6.726;2024-03-06T12:26:59;42.63;;;21.52;;
59006;SDS011;44792;52.760;6.726;2024-03-06T12:29:28;40.08;;;21.30;;
59006;SDS011;44792;52.760;6.726;2024-03-06T12:32:01;41.60;;;19.85;;
59006;SDS011;44792;52.760;6.726;2024-03-06T12:34:28;40.47;;;20.95;;
59006;SDS011;44792;52.760;6.726;2024-03-06T12:36:55;40.80;;;21.60;;
59006;SDS011;44792;52.760;6.726;2024-03-06T12:39:22;44.92;;;22.48;;
59006;SDS011;44792;52.760;6.726;2024-03-06T12:41:49;41.97;;;20.92;;
59006;SDS011;44792;52.760;6.726;2024-03-06T12:44:15;45.13;;;20.80;;
59006;SDS011;44792;52.760;6.726;2024-03-06T12:46:41;39.10;;;20.83;;
59006;SDS011;44792;52.760;6.726;2024-03-06T12:49:07;44.45;;;21.25;;
59006;SDS011;44792;52.760;6.726;2024-03-06T12:51:33;41.00;;;21.60;;
59006;SDS011;44792;52.760;6.726;2024-03-06T12:54:00;38.10;;;20.55;;
59006;SDS011;44792;52.760;6.726;2024-03-06T12:56:26;43.30;;;20.67;;
59006;SDS011;44792;52.760;6.726;2024-03-06T12:58:52;42.35;;;21.65;;
59006;SDS011;44792;52.760;6.726;2024-03-06T13:01:18;43.30;;;22.17;;
59006;SDS011;44792;52.760;6.726;2024-03-06T13:03:45;36.88;;;20.63;;
59006;SDS011;44792;52.760;6.726;2024-03-06T13:06:10;43.78;;;20.63;;
59006;SDS011;44792;52.760;6.726;2024-03-06T13:08:36;39.95;;;21.60;;
59006;SDS011;44792;52.760;6.726;2024-03-06T13:11:02;41.10;;;20.98;;
59006;SDS011;44792;52.760;6.726;2024-03-06T13:13:28;42.83;;;20.48;;
59006;SDS011;44792;52.760;6.726;2024-03-06T13:15:55;39.17;;;20.52;;
59006;SDS011;44792;52.760;6.726;2024-03-06T13:18:21;37.47;;;21.60;;
59006;SDS011;44792;52.760;6.726;2024-03-06T13:20:47;41.90;;;20.23;;
59006;SDS011;44792;52.760;6.726;2024-03-06T13:23:17;39.60;;;21.88;;
59006;SDS011;44792;52.760;6.726;2024-03-06T13:25:43;42.15;;;21.40;;
59006;SDS011;44792;52.760;6.726;2024-03-06T13:28:10;41.00;;;21.55;;
59006;SDS011;44792;52.760;6.726;2024-03-06T13:30:36;42.38;;;22.02;;
59006;SDS011;44792;52.760;6.726;2024-03-06T13:33:04;43.33;;;21.27;;
59006;SDS011;44792;52.760;6.726;2024-03-06T13:35:30;39.50;;;21.92;;
59006;SDS011;44792;52.760;6.726;2024-03-06T13:37:56;41.42;;;19.90;;
59006;SDS011;44792;52.760;6.726;2024-03-06T13:40:22;38.58;;;21.40;;
59006;SDS011;44792;52.760;6.726;2024-03-06T13:42:47;41.60;;;20.73;;
59006;SDS011;44792;52.760;6.726;2024-03-06T13:45:13;37.28;;;20.92;;
59006;SDS011;44792;52.760;6.726;2024-03-06T13:47:40;39.45;;;20.50;;
59006;SDS011;44792;52.760;6.726;2024-03-06T13:50:14;42.45;;;22.10;;
59006;SDS011;44792;52.760;6.726;2024-03-06T13:52:41;39.58;;;20.55;;
59006;SDS011;44792;52.760;6.726;2024-03-06T13:55:07;40.25;;;21.00;;
59006;SDS011;44792;52.760;6.726;2024-03-06T13:57:34;40.70;;;20.73;;
59006;SDS011;44792;52.760;6.726;2024-03-06T14:00:01;37.85;;;21.83;;
59006;SDS011;44792;52.760;6.726;2024-03-06T14:02:30;38.70;;;21.67;;
59006;SDS011;44792;52.760;6.726;2024-03-06T14:04:56;40.45;;;21.40;;
59006;SDS011;44792;52.760;6.726;2024-03-06T14:07:22;36.45;;;21.10;;
59006;SDS011;44792;52.760;6.726;2024-03-06T14:09:48;38.00;;;21.60;;
59006;SDS011;44792;52.760;6.726;2024-03-06T14:12:15;43.10;;;22.05;;
59006;SDS011;44792;52.760;6.726;2024-03-06T14:14:41;42.13;;;21.02;;
59006;SDS011;44792;52.760;6.726;2024-03-06T14:17:07;39.05;;;21.00;;
59006;SDS011;44792;52.760;6.726;2024-03-06T14:19:33;36.47;;;20.08;;
59006;SDS011;44792;52.760;6.726;2024-03-06T14:21:58;39.60;;;20.85;;
59006;SDS011;44792;52.760;6.726;2024-03-06T14:24:24;38.78;;;20.83;;
59006;SDS011;44792;52.760;6.726;2024-03-06T14:26:50;38.40;;;20.98;;
59006;SDS011;44792;52.760;6.726;2024-03-06T14:29:15;35.88;;;20.38;;
59006;SDS011;44792;52.760;6.726;2024-03-06T14:31:41;35.75;;;21.48;;
59006;SDS011;44792;52.760;6.726;2024-03-06T14:34:07;39.38;;;19.83;;
59006;SDS011;44792;52.760;6.726;2024-03-06T14:36:33;37.95;;;20.60;;
59006;SDS011;44792;52.760;6.726;2024-03-06T14:38:59;39.63;;;20.25;;
59006;SDS011;44792;52.760;6.726;2024-03-06T14:41:25;36.42;;;20.00;;